Wind From: 11-12-2017 04:25 Until: 16:00 warning for: Wind Level: Orange info button

Power and phone distribution networks may be disrupted for relatively long periods., Roofs and chimneys can be damaged. , Tree branches may break. , Vehicles can be deported. , Traffic may be disrupted, particularly on secondary roads in forest areas. Limit your trips. , Limit your speed in highway driving, especially if you drive a vehicle or hitch sensitive to wind. , Do not go for walks in forests or along the coast., In town, be vigilant against possible falling objects., Do not work on roofs and do not touch any electrical line fallen on the ground., Store or secure sensitive objects to wind or likely to be damaged., Always install power generators outside buildings. 


Meteo18 Weather Cam more information Meteo18 Weather Cam


Thunder radar more information blitzortung!


Rain radar more information rain snow radar


Visit our other weather sites:

Template documentation
and downloads

And another site



Weather Underground History page Text

Daily Summary for March 12, 2017 Units:  Metric    English   Both
« Previous Day
Next Day »
Daily Weekly Monthly Yearly Custom
  High: Low: Average:
Temperature: 17.0 °C 6.2 °C 11.3 °C
Dew Point: 10.2 °C 3.4 °C 6.8 °C
Humidity: 92 % 58 % 75 %
Wind Speed: 20.9 km/h 0.0 km/h 4.8 km/h
Wind Gust: 22.5 km/h - -
Wind:- - WSW
Pressure: 1017.8 hPa 1012.4 hPa -
Precipitation: 0.0 mm    
Historical Graphs
 
 
Tabular Data for March 12, 2017
Time Temperature Dew Point Pressure Wind Wind Speed Wind Gust Humidity Rainfall Rate (Hourly)
00:02 10.2 °C 3.5 °C 1014.8 hPa North 3.2 km/h 3.2 km/h 63 % 0.0 mm
00:07 10.6 °C 3.4 °C 1014.8 hPa North 1.6 km/h 3.2 km/h 61 % 0.0 mm
00:12 10.4 °C 3.7 °C 1014.8 hPa NNW 1.6 km/h 3.2 km/h 63 % 0.0 mm
00:17 10.4 °C 3.9 °C 1014.8 hPa NNE 3.2 km/h 3.2 km/h 64 % 0.0 mm
00:22 10.4 °C 3.9 °C 1014.8 hPa North 3.2 km/h 3.2 km/h 64 % 0.0 mm
00:32 10.3 °C 4.2 °C 1014.8 hPa NNW 3.2 km/h 4.8 km/h 66 % 0.0 mm
00:37 10.6 °C 4.1 °C 1014.4 hPa Calm   3.2 km/h 64 % 0.0 mm
00:42 10.6 °C 4.1 °C 1014.4 hPa West 1.6 km/h 3.2 km/h 64 % 0.0 mm
00:52 10.2 °C 4.1 °C 1014.4 hPa West 1.6 km/h 3.2 km/h 66 % 0.0 mm
00:57 10.3 °C 4.2 °C 1014.8 hPa WSW 1.6 km/h 4.8 km/h 66 % 0.0 mm
01:02 10.4 °C 4.1 °C 1014.8 hPa Calm   4.8 km/h 65 % 0.0 mm
01:07 10.6 °C 4.1 °C 1014.4 hPa Calm   4.8 km/h 64 % 0.0 mm
01:12 10.5 °C 4.2 °C 1014.4 hPa Calm   1.6 km/h 65 % 0.0 mm
01:17 10.6 °C 4.1 °C 1014.4 hPa NE 1.6 km/h 1.6 km/h 64 % 0.0 mm
01:22 10.6 °C 4.1 °C 1014.4 hPa Calm   3.2 km/h 64 % 0.0 mm
01:32 10.3 °C 4.0 °C 1014.4 hPa Calm   3.2 km/h 65 % 0.0 mm
01:37 10.4 °C 4.1 °C 1014.4 hPa NE 1.6 km/h 3.2 km/h 65 % 0.0 mm
01:42 10.6 °C 4.1 °C 1014.4 hPa Calm   3.2 km/h 64 % 0.0 mm
01:52 10.8 °C 4.3 °C 1014.4 hPa WNW 1.6 km/h 1.6 km/h 64 % 0.0 mm
01:57 10.3 °C 3.8 °C 1014.4 hPa WNW 1.6 km/h 3.2 km/h 64 % 0.0 mm
02:02 9.7 °C 4.1 °C 1014.4 hPa West 1.6 km/h 3.2 km/h 68 % 0.0 mm
02:07 9.7 °C 4.1 °C 1014.4 hPa WNW 1.6 km/h 3.2 km/h 68 % 0.0 mm
02:12 9.6 °C 4.0 °C 1014.4 hPa West 1.6 km/h 3.2 km/h 68 % 0.0 mm
02:17 9.6 °C 4.0 °C 1014.1 hPa West 1.6 km/h 3.2 km/h 68 % 0.0 mm
02:22 9.8 °C 4.0 °C 1014.1 hPa West 3.2 km/h 3.2 km/h 67 % 0.0 mm
02:27 10.2 °C 4.1 °C 1014.1 hPa WSW 1.6 km/h 3.2 km/h 66 % 0.0 mm
02:32 10.5 °C 4.0 °C 1014.1 hPa WSW 1.6 km/h 3.2 km/h 64 % 0.0 mm
02:42 11.1 °C 3.9 °C 1013.8 hPa SW 1.6 km/h 3.2 km/h 61 % 0.0 mm
02:47 10.9 °C 3.9 °C 1013.8 hPa Calm   3.2 km/h 62 % 0.0 mm
02:52 10.4 °C 4.1 °C 1013.8 hPa Calm   3.2 km/h 65 % 0.0 mm
02:57 10.3 °C 4.0 °C 1013.8 hPa Calm   1.6 km/h 65 % 0.0 mm
03:02 10.4 °C 4.1 °C 1013.8 hPa Calm   1.6 km/h 65 % 0.0 mm
03:07 10.1 °C 4.2 °C 1013.8 hPa Calm   1.6 km/h 67 % 0.0 mm
03:12 9.7 °C 4.1 °C 1013.8 hPa WNW 1.6 km/h 1.6 km/h 68 % 0.0 mm
03:17 9.8 °C 4.0 °C 1013.8 hPa West 1.6 km/h 1.6 km/h 67 % 0.0 mm
03:22 10.0 °C 3.9 °C 1013.4 hPa West 1.6 km/h 1.6 km/h 66 % 0.0 mm
03:32 9.8 °C 4.0 °C 1013.4 hPa Calm   1.6 km/h 67 % 0.0 mm
03:37 9.9 °C 3.8 °C 1013.4 hPa Calm   1.6 km/h 66 % 0.0 mm
03:42 9.9 °C 3.8 °C 1013.4 hPa Calm   1.6 km/h 66 % 0.0 mm
03:47 10.0 °C 3.9 °C 1013.4 hPa Calm   1.6 km/h 66 % 0.0 mm
03:52 10.0 °C 3.9 °C 1013.1 hPa Calm   1.6 km/h 66 % 0.0 mm
03:57 10.1 °C 4.0 °C 1013.1 hPa Calm   1.6 km/h 66 % 0.0 mm
04:02 10.2 °C 3.9 °C 1013.1 hPa West 1.6 km/h 1.6 km/h 65 % 0.0 mm
04:12 9.9 °C 3.8 °C 1013.1 hPa WNW 1.6 km/h 1.6 km/h 66 % 0.0 mm
04:17 9.8 °C 4.0 °C 1013.1 hPa Calm   1.6 km/h 67 % 0.0 mm
04:22 9.4 °C 3.8 °C 1013.1 hPa Calm   1.6 km/h 68 % 0.0 mm
04:32 9.3 °C 3.9 °C 1013.1 hPa Calm     69 % 0.0 mm
04:37 9.3 °C 4.1 °C 1012.8 hPa Calm     70 % 0.0 mm
04:42 9.1 °C 4.1 °C 1012.8 hPa WNW 1.6 km/h 1.6 km/h 71 % 0.0 mm
04:52 8.8 °C 4.2 °C 1012.8 hPa WNW 1.6 km/h 1.6 km/h 73 % 0.0 mm
05:02 8.6 °C 4.2 °C 1012.8 hPa Calm   3.2 km/h 74 % 0.0 mm
05:12 8.6 °C 4.2 °C 1012.8 hPa Calm   3.2 km/h 74 % 0 mm
05:17 8.3 °C 4.1 °C 1012.8 hPa Calm   1.6 km/h 75 % 0.0 mm
05:22 7.9 °C 4.1 °C 1012.8 hPa Calm   1.6 km/h 77 % 0.0 mm
05:32 7.7 °C 4.3 °C 1012.8 hPa Calm     79 % 0.0 mm
05:37 7.6 °C 4.4 °C 1012.8 hPa Calm     80 % 0.0 mm
05:42 7.5 °C 4.5 °C 1012.8 hPa Calm     81 % 0.0 mm
05:47 7.6 °C 4.4 °C 1013.1 hPa Calm     80 % 0.0 mm
05:52 7.4 °C 4.4 °C 1012.8 hPa WNW 1.6 km/h   81 % 0.0 mm
06:02 7.4 °C 4.2 °C 1012.8 hPa Calm   3.2 km/h 80 % 0.0 mm
06:12 7.5 °C 4.1 °C 1012.8 hPa Calm   3.2 km/h 79 % 0.0 mm
06:17 7.7 °C 4.1 °C 1012.8 hPa Calm   1.6 km/h 78 % 0.0 mm
06:22 7.9 °C 4.3 °C 1012.8 hPa ENE 1.6 km/h 1.6 km/h 78 % 0.0 mm
06:32 7.4 °C 4.2 °C 1013.1 hPa Calm   1.6 km/h 80 % 0.0 mm
06:37 6.9 °C 4.2 °C 1012.8 hPa Calm   1.6 km/h 83 % 0.0 mm
06:42 6.7 °C 4.2 °C 1012.8 hPa Calm   1.6 km/h 84 % 0.0 mm
06:47 6.6 °C 4.3 °C 1012.8 hPa Calm   1.6 km/h 85 % 0.0 mm
06:52 6.6 °C 4.3 °C 1012.8 hPa Calm   1.6 km/h 85 % 0.0 mm
07:02 6.6 °C 4.3 °C 1012.8 hPa Calm   1.6 km/h 85 % 0.0 mm
07:07 6.5 °C 4.3 °C 1013.1 hPa Calm     86 % 0.0 mm
07:12 6.4 °C 4.2 °C 1013.1 hPa Calm     86 % 0.0 mm
07:17 6.3 °C 4.1 °C 1013.1 hPa Calm   1.6 km/h 86 % 0.0 mm
07:22 6.2 °C 4.2 °C 1013.1 hPa Calm   1.6 km/h 87 % 0.0 mm
07:27 6.2 °C 4.4 °C 1013.1 hPa SSW 1.6 km/h 3.2 km/h 88 % 0.0 mm
07:32 6.2 °C 4.4 °C 1013.1 hPa SSW 6.4 km/h 6.4 km/h 88 % 0.0 mm
07:42 6.7 °C 4.9 °C 1013.4 hPa SSW 6.4 km/h 8.0 km/h 88 % 0.0 mm
07:47 6.9 °C 4.9 °C 1013.4 hPa SSW 8.0 km/h 14.5 km/h 87 % 0.0 mm
07:57 7.6 °C 5.2 °C 1013.4 hPa SW 4.8 km/h 14.5 km/h 85 % 0.0 mm
08:02 7.7 °C 5.3 °C 1013.4 hPa SSW 3.2 km/h 14.5 km/h 85 % 0.0 mm
08:12 8.1 °C 5.9 °C 1013.8 hPa SW 14.5 km/h 14.5 km/h 86 % 0.0 mm
08:17 8.2 °C 6.2 °C 1013.8 hPa SW 8.0 km/h 16.1 km/h 87 % 0.0 mm
08:22 8.3 °C 6.4 °C 1013.8 hPa WSW 12.9 km/h 16.1 km/h 88 % 0.0 mm
08:27 8.4 °C 6.5 °C 1013.8 hPa SW 12.9 km/h 16.1 km/h 88 % 0.0 mm
08:32 8.6 °C 6.9 °C 1013.8 hPa WSW 4.8 km/h 16.1 km/h 89 % 0.0 mm
08:37 8.7 °C 7.0 °C 1013.8 hPa WSW 4.8 km/h 16.1 km/h 89 % 0.0 mm
08:42 8.9 °C 7.2 °C 1013.8 hPa SSW 4.8 km/h 16.1 km/h 89 % 0.0 mm
08:52 9.1 °C 7.4 °C 1013.8 hPa West 4.8 km/h 12.9 km/h 89 % 0.0 mm
08:57 9.2 °C 7.5 °C 1013.8 hPa SW 3.2 km/h 11.3 km/h 89 % 0.0 mm
09:02 9.3 °C 7.6 °C 1013.8 hPa West 3.2 km/h 11.3 km/h 89 % 0.0 mm
09:12 9.5 °C 7.8 °C 1013.8 hPa SW 6.4 km/h 12.9 km/h 89 % 0.0 mm
09:22 9.6 °C 7.7 °C 1013.8 hPa SSW 8.0 km/h 17.7 km/h 88 % 0.0 mm
09:32 9.4 °C 7.7 °C 1013.8 hPa WSW 6.4 km/h 14.5 km/h 89 % 0.0 mm
09:37 9.5 °C 7.8 °C 1013.8 hPa SW 3.2 km/h 14.5 km/h 89 % 0.0 mm
09:42 9.6 °C 7.9 °C 1013.8 hPa SW 4.8 km/h 14.5 km/h 89 % 0.0 mm
09:52 9.9 °C 8.2 °C 1013.8 hPa SW 14.5 km/h 14.5 km/h 89 % 0.0 mm
09:57 9.9 °C 8.0 °C 1013.8 hPa WSW 9.7 km/h 19.3 km/h 88 % 0.0 mm
10:02 10.1 °C 8.4 °C 1013.8 hPa West 9.7 km/h 19.3 km/h 89 % 0.0 mm
10:07 10.3 °C 8.4 °C 1013.8 hPa WSW 6.4 km/h 19.3 km/h 88 % 0.0 mm
10:12 10.6 °C 8.7 °C 1013.8 hPa SW 20.9 km/h 20.9 km/h 88 % 0.0 mm
10:17 10.5 °C 8.6 °C 1013.8 hPa WSW 9.7 km/h 19.3 km/h 88 % 0.0 mm
10:22 10.6 °C 8.7 °C 1013.8 hPa WSW 3.2 km/h 22.5 km/h 88 % 0.0 mm
10:32 10.8 °C 8.6 °C 1013.8 hPa WSW 16.1 km/h 22.5 km/h 86 % 0.0 mm
10:37 11.1 °C 9.0 °C 1013.8 hPa West 11.3 km/h 22.5 km/h 87 % 0.0 mm
10:47 11.5 °C 8.9 °C 1013.8 hPa WSW 11.3 km/h 16.1 km/h 84 % 0.0 mm
10:52 11.7 °C 9.1 °C 1013.8 hPa WNW 6.4 km/h 16.1 km/h 84 % 0.0 mm
11:02 11.7 °C 8.7 °C 1013.4 hPa West 11.3 km/h 16.1 km/h 82 % 0.0 mm
11:12 12.1 °C 8.9 °C 1013.4 hPa West 8.0 km/h 20.9 km/h 81 % 0.0 mm
11:17 12.2 °C 9.0 °C 1013.4 hPa West 3.2 km/h 17.7 km/h 81 % 0.0 mm
11:22 12.6 °C 9.2 °C 1013.4 hPa WNW 4.8 km/h 17.7 km/h 80 % 0.0 mm
11:32 12.8 °C 9.2 °C 1013.4 hPa West 11.3 km/h 14.5 km/h 79 % 0.0 mm
11:42 13.1 °C 8.8 °C 1013.4 hPa West 11.3 km/h 16.1 km/h 75 % 0.0 mm
11:47 13.2 °C 8.9 °C 1013.4 hPa West 12.9 km/h 16.1 km/h 75 % 0.0 mm
11:52 13.5 °C 9.2 °C 1013.4 hPa West 12.9 km/h 17.7 km/h 75 % 0.0 mm
12:02 13.7 °C 9.1 °C 1013.4 hPa West 6.4 km/h 17.7 km/h 74 % 0.0 mm
12:12 13.9 °C 9.3 °C 1013.4 hPa West 8.0 km/h 14.5 km/h 74 % 0.0 mm
12:17 14.0 °C 9.0 °C 1013.4 hPa West 9.7 km/h 14.5 km/h 72 % 0.0 mm
12:22 14.0 °C 8.8 °C 1013.4 hPa SSW 4.8 km/h 16.1 km/h 71 % 0.0 mm
12:27 14.3 °C 9.1 °C 1013.4 hPa WSW 8.0 km/h 16.1 km/h 71 % 0.0 mm
12:32 14.4 °C 9.4 °C 1013.4 hPa West 9.7 km/h 14.5 km/h 72 % 0.0 mm
12:42 14.6 °C 9.0 °C 1013.1 hPa WNW 6.4 km/h 14.5 km/h 69 % 0.0 mm
12:52 14.7 °C 8.9 °C 1013.1 hPa WSW 4.8 km/h 12.9 km/h 68 % 0.0 mm
12:57 14.8 °C 9.0 °C 1013.1 hPa WSW 3.2 km/h 12.9 km/h 68 % 0.0 mm
13:02 14.9 °C 10.1 °C 1013.1 hPa SSW 12.9 km/h 12.9 km/h 73 % 0.0 mm
13:07 14.8 °C 9.8 °C 1013.1 hPa SSW 8.0 km/h 16.1 km/h 72 % 0.0 mm
13:12 14.8 °C 10.2 °C 1013.1 hPa SSW 12.9 km/h 17.7 km/h 74 % 0.0 mm
13:17 14.9 °C 10.1 °C 1013.1 hPa South 9.7 km/h 17.7 km/h 73 % 0.0 mm
13:22 15.2 °C 10.2 °C 1013.1 hPa West 8.0 km/h 19.3 km/h 72 % 0.0 mm
13:27 15.5 °C 10.1 °C 1013.1 hPa WSW 6.4 km/h 19.3 km/h 70 % 0.0 mm
13:32 15.6 °C 9.9 °C 1013.1 hPa West 9.7 km/h 19.3 km/h 69 % 0.0 mm
13:42 15.7 °C 9.6 °C 1012.8 hPa SSW 8.0 km/h 16.1 km/h 67 % 0.0 mm
13:47 15.7 °C 9.6 °C 1012.8 hPa South 6.4 km/h 17.7 km/h 67 % 0.0 mm
13:52 15.9 °C 10.0 °C 1012.8 hPa SSW 9.7 km/h 17.7 km/h 68 % 0.0 mm
13:57 15.8 °C 9.7 °C 1012.8 hPa SW 4.8 km/h 16.1 km/h 67 % 0.0 mm
14:02 16.1 °C 9.7 °C 1012.8 hPa South 6.4 km/h 17.7 km/h 66 % 0.0 mm
14:07 16.1 °C 10.0 °C 1012.8 hPa SW 16.1 km/h 17.7 km/h 67 % 0.0 mm
14:12 16.1 °C 9.7 °C 1012.8 hPa SSW 14.5 km/h 19.3 km/h 66 % 0.0 mm
14:17 15.9 °C 9.8 °C 1012.8 hPa SSW 16.1 km/h 20.9 km/h 67 % 0.0 mm
14:22 15.9 °C 9.6 °C 1012.8 hPa SW 14.5 km/h 20.9 km/h 66 % 0.0 mm
14:32 15.9 °C 8.9 °C 1012.8 hPa West 8.0 km/h 17.7 km/h 63 % 0.0 mm
14:37 15.9 °C 9.3 °C 1012.8 hPa SW 12.9 km/h 17.7 km/h 65 % 0.0 mm
14:42 16.2 °C 9.1 °C 1012.8 hPa West 6.4 km/h 17.7 km/h 63 % 0.0 mm
14:52 16.3 °C 9.2 °C 1012.8 hPa SW 8.0 km/h 17.7 km/h 63 % 0.0 mm
14:57 16.4 °C 9.3 °C 1012.8 hPa SW 12.9 km/h 14.5 km/h 63 % 0.0 mm
15:02 16.4 °C 9.1 °C 1012.8 hPa SW 16.1 km/h 16.1 km/h 62 % 0.0 mm
15:07 16.3 °C 9.0 °C 1012.8 hPa WSW 11.3 km/h 17.7 km/h 62 % 0.0 mm
15:12 16.4 °C 9.3 °C 1012.8 hPa West 3.2 km/h 17.7 km/h 63 % 0.0 mm
15:17 16.5 °C 9.4 °C 1012.8 hPa SSW 8.0 km/h 17.7 km/h 63 % 0.0 mm
15:22 16.8 °C 9.0 °C 1012.8 hPa West 9.7 km/h 16.1 km/h 60 % 0.0 mm
15:32 16.7 °C 9.1 °C 1012.4 hPa SSE 3.2 km/h 16.1 km/h 61 % 0.0 mm
15:37 16.8 °C 9.2 °C 1012.4 hPa South 11.3 km/h 16.1 km/h 61 % 0.0 mm
15:42 16.7 °C 8.9 °C 1012.4 hPa SW 9.7 km/h 17.7 km/h 60 % 0.0 mm
15:47 16.8 °C 9.5 °C 1012.8 hPa SW 3.2 km/h 17.7 km/h 62 % 0.0 mm
15:52 17.0 °C 9.4 °C 1012.8 hPa SSW 1.6 km/h 17.7 km/h 61 % 0.0 mm
18:37 14.9 °C 6.7 °C 1013.8 hPa WNW 1.6 km/h 6.4 km/h 58 % 0.0 mm
18:42 14.7 °C 6.5 °C 1013.8 hPa WNW 1.6 km/h 8.0 km/h 58 % 0.0 mm
18:47 14.6 °C 6.7 °C 1013.8 hPa NW 1.6 km/h 8.0 km/h 59 % 0.0 mm
18:52 14.4 °C 6.5 °C 1013.8 hPa Calm   6.4 km/h 59 % 0.0 mm
18:57 14.3 °C 6.4 °C 1013.8 hPa WNW 1.6 km/h 4.8 km/h 59 % 0.0 mm
19:02 14.2 °C 6.1 °C 1014.1 hPa WNW 1.6 km/h 3.2 km/h 58 % 0.0 mm
19:12 13.9 °C 5.8 °C 1014.1 hPa Calm   3.2 km/h 58 % 0.0 mm
19:22 13.7 °C 5.6 °C 1014.1 hPa Calm     58 % 0.0 mm
19:27 13.5 °C 5.6 °C 1014.4 hPa Calm     59 % 0.0 mm
19:32 13.6 °C 5.5 °C 1014.4 hPa Calm     58 % 0.0 mm
19:37 13.5 °C 5.9 °C 1014.4 hPa NNE 1.6 km/h 1.6 km/h 60 % 0.0 mm
19:42 13.3 °C 5.5 °C 1014.4 hPa NNW 1.6 km/h 3.2 km/h 59 % 0.0 mm
19:52 13.4 °C 5.5 °C 1014.4 hPa WNW 1.6 km/h 3.2 km/h 59 % 0.0 mm
19:57 13.2 °C 5.6 °C 1014.4 hPa WNW 3.2 km/h 6.4 km/h 60 % 0.0 mm
20:02 12.9 °C 5.8 °C 1014.8 hPa NW 3.2 km/h 6.4 km/h 62 % 0.0 mm
20:12 13.1 °C 6.0 °C 1014.8 hPa NW 4.8 km/h 8.0 km/h 62 % 0.0 mm
20:17 12.9 °C 6.0 °C 1015.1 hPa NW 1.6 km/h 8.0 km/h 63 % 0.0 mm
20:22 12.7 °C 6.1 °C 1015.1 hPa NNW 1.6 km/h 6.4 km/h 64 % 0.0 mm
20:32 12.3 °C 5.7 °C 1015.1 hPa West 4.8 km/h 6.4 km/h 64 % 0.0 mm
20:42 11.8 °C 6.7 °C 1015.5 hPa NW 3.2 km/h 8.0 km/h 71 % 0.0 mm
20:52 11.8 °C 8.3 °C 1015.5 hPa NW 4.8 km/h 11.3 km/h 79 % 0.0 mm
20:57 11.8 °C 8.5 °C 1015.8 hPa NW 4.8 km/h 12.9 km/h 80 % 0.0 mm
21:02 11.8 °C 8.8 °C 1015.8 hPa NNW 9.7 km/h 19.3 km/h 82 % 0.0 mm
21:07 11.7 °C 9.1 °C 1015.8 hPa WNW 6.4 km/h 19.3 km/h 84 % 0.0 mm
21:12 11.7 °C 9.3 °C 1015.8 hPa WNW 12.9 km/h 19.3 km/h 85 % 0.0 mm
21:17 11.6 °C 9.2 °C 1015.8 hPa WNW 11.3 km/h 20.9 km/h 85 % 0.0 mm
21:22 11.6 °C 9.3 °C 1016.1 hPa NW 9.7 km/h 20.9 km/h 86 % 0.0 mm
21:32 11.3 °C 9.2 °C 1016.1 hPa North 6.4 km/h 17.7 km/h 87 % 0.0 mm
21:42 11.2 °C 9.3 °C 1016.5 hPa NNW 6.4 km/h 14.5 km/h 88 % 0.0 mm
21:52 11.1 °C 9.2 °C 1016.5 hPa WNW 3.2 km/h 16.1 km/h 88 % 0.0 mm
21:57 10.9 °C 9.2 °C 1016.5 hPa NW 3.2 km/h 16.1 km/h 89 % 0.0 mm
22:02 10.8 °C 9.1 °C 1016.8 hPa North 6.4 km/h 14.5 km/h 89 % 0.0 mm
22:07 10.8 °C 9.1 °C 1016.5 hPa NW 4.8 km/h 14.5 km/h 89 % 0.0 mm
22:12 10.8 °C 9.1 °C 1016.8 hPa NNW 6.4 km/h 14.5 km/h 89 % 0.0 mm
22:17 10.7 °C 9.1 °C 1016.8 hPa NW 4.8 km/h 16.1 km/h 90 % 0.0 mm
22:22 10.7 °C 9.1 °C 1016.8 hPa WNW 4.8 km/h 16.1 km/h 90 % 0.0 mm
22:27 10.7 °C 9.1 °C 1016.8 hPa North 4.8 km/h 16.1 km/h 90 % 0.0 mm
22:32 10.6 °C 9.0 °C 1016.8 hPa NNW 12.9 km/h 17.7 km/h 90 % 0.0 mm
22:37 10.6 °C 9.0 °C 1016.8 hPa NNW 6.4 km/h 17.7 km/h 90 % 0.0 mm
22:42 10.5 °C 8.9 °C 1017.2 hPa NNW 8.0 km/h 17.7 km/h 90 % 0.0 mm
22:47 10.5 °C 8.9 °C 1017.2 hPa NW 4.8 km/h 17.7 km/h 90 % 0.0 mm
22:52 10.4 °C 8.8 °C 1017.2 hPa NW 6.4 km/h 17.7 km/h 90 % 0.0 mm
22:57 10.4 °C 8.8 °C 1017.2 hPa WNW 4.8 km/h 20.9 km/h 90 % 0.0 mm
23:02 10.4 °C 9.0 °C 1017.2 hPa WNW 12.9 km/h 20.9 km/h 91 % 0.0 mm
23:07 10.4 °C 9.0 °C 1017.2 hPa NNW 12.9 km/h 20.9 km/h 91 % 0.0 mm
23:12 10.4 °C 9.0 °C 1017.2 hPa NW 9.7 km/h 20.9 km/h 91 % 0.0 mm
23:17 10.3 °C 8.9 °C 1017.2 hPa NNW 3.2 km/h 20.9 km/h 91 % 0.0 mm
23:22 10.3 °C 8.9 °C 1017.5 hPa NNW 4.8 km/h 20.9 km/h 91 % 0.0 mm
23:32 10.2 °C 8.8 °C 1017.5 hPa NNW 4.8 km/h 12.9 km/h 91 % 0.0 mm
23:37 10.2 °C 8.8 °C 1017.5 hPa NNW 3.2 km/h 12.9 km/h 91 % 0.0 mm
23:42 10.2 °C 8.8 °C 1017.5 hPa NW 3.2 km/h 11.3 km/h 91 % 0.0 mm
23:47 10.2 °C 8.8 °C 1017.5 hPa WNW 1.6 km/h 11.3 km/h 91 % 0.0 mm
23:52 10.1 °C 8.7 °C 1017.8 hPa NNW 6.4 km/h 11.3 km/h 91 % 0.0 mm
23:57 10.1 °C 8.9 °C 1017.8 hPa NW 9.7 km/h 12.9 km/h 92 % 0.0 mm
Meteo18
Compliments of Weather Underground - 4 mb

Script developed by  Jim McMurry - jmcmurry@mwt.net Adapted for the template by  Wim van der Kuil - Leuven-Template.eu

You find our weather info also at:

European Weather Network

Weather Underground

Equipment we use:

Weather-station
Davis Vue

Weather-program
Meteohub

Weather-server
Raspberry PI 2 B+

Provider
1 and 1

Davis Vue

Meteohub

Raspberry PI 2 B+

1 and 1